createdAt,value
2018-01-11T00:00:34.302Z,46.72
2018-01-11T00:03:01.912Z,46.20
2018-01-11T00:05:29.473Z,46.88
2018-01-11T00:07:57.831Z,47.00
2018-01-11T00:10:25.477Z,47.03
2018-01-11T00:12:52.998Z,44.88
2018-01-11T00:15:21.427Z,47.20
2018-01-11T00:17:48.946Z,44.08
2018-01-11T00:20:16.536Z,46.42
2018-01-11T00:22:44.072Z,45.50
2018-01-11T00:25:11.578Z,47.70
2018-01-11T00:27:39.087Z,46.17
2018-01-11T00:30:06.615Z,47.97
2018-01-11T00:32:34.136Z,45.45
2018-01-11T00:35:01.726Z,44.35
2018-01-11T00:37:29.241Z,47.93
2018-01-11T00:39:56.749Z,48.53
2018-01-11T00:42:24.295Z,49.85
2018-01-11T00:44:51.816Z,49.42
2018-01-11T00:47:20.297Z,49.08
2018-01-11T00:49:47.833Z,46.97
2018-01-11T00:52:15.343Z,45.53
2018-01-11T00:54:42.914Z,44.88
2018-01-11T00:57:10.604Z,43.70
2018-01-11T00:59:38.208Z,41.45
2018-01-11T01:02:05.828Z,42.70
2018-01-11T01:04:33.415Z,44.35
2018-01-11T01:07:01.851Z,42.92
2018-01-11T01:09:29.359Z,41.58
2018-01-11T01:11:57.629Z,39.65
2018-01-11T01:14:25.921Z,39.45
2018-01-11T01:16:53.539Z,37.13
2018-01-11T01:19:21.057Z,38.30
2018-01-11T01:21:48.614Z,39.58
2018-01-11T01:24:16.186Z,38.03
2018-01-11T01:26:43.704Z,35.22
2018-01-11T01:29:11.244Z,34.28
2018-01-11T01:31:38.743Z,37.15
2018-01-11T01:34:06.274Z,37.55
2018-01-11T01:36:34.652Z,36.72
2018-01-11T01:39:02.182Z,35.70
2018-01-11T01:41:30.602Z,37.15
2018-01-11T01:43:58.872Z,37.17
2018-01-11T01:46:27.150Z,36.55
2018-01-11T01:48:55.432Z,36.60
2018-01-11T01:51:23.715Z,37.23
2018-01-11T01:53:52.015Z,35.42
2018-01-11T01:56:19.552Z,38.35
2018-01-11T01:58:47.051Z,37.45
2018-01-11T02:01:14.570Z,39.47
2018-01-11T02:03:42.863Z,39.28
2018-01-11T02:06:10.398Z,39.70
2018-01-11T02:08:38.672Z,40.10
2018-01-11T02:11:06.254Z,38.92
2018-01-11T02:13:33.811Z,39.35
2018-01-11T02:16:02.083Z,37.00
2018-01-11T02:18:29.605Z,37.65
2018-01-11T02:20:57.270Z,38.50
2018-01-11T02:23:24.799Z,36.63
2018-01-11T02:25:52.321Z,39.03
2018-01-11T02:28:19.879Z,40.03
2018-01-11T02:30:48.187Z,40.40
2018-01-11T02:33:15.715Z,41.85
2018-01-11T02:35:43.319Z,40.17
2018-01-11T02:38:10.820Z,38.90
2018-01-11T02:40:38.336Z,40.42
2018-01-11T02:43:05.847Z,39.33
2018-01-11T02:45:34.127Z,38.10
2018-01-11T02:48:02.410Z,37.88
2018-01-11T02:50:30.998Z,37.72
2018-01-11T02:52:58.498Z,38.63
2018-01-11T02:55:26.143Z,41.00
2018-01-11T02:57:53.663Z,40.40
2018-01-11T03:00:27.019Z,39.75
2018-01-11T03:02:54.571Z,40.28
2018-01-11T03:05:22.143Z,39.83
2018-01-11T03:07:49.701Z,40.92
2018-01-11T03:10:17.233Z,40.25
2018-01-11T03:12:44.738Z,38.33
2018-01-11T03:15:12.543Z,40.95
2018-01-11T03:17:40.074Z,42.20
2018-01-11T03:20:08.518Z,39.38
2018-01-11T03:22:36.014Z,37.20
2018-01-11T03:25:03.546Z,37.78
2018-01-11T03:27:31.076Z,39.00
2018-01-11T03:29:58.581Z,39.90
2018-01-11T03:32:26.146Z,38.42
2018-01-11T03:34:53.647Z,39.15
2018-01-11T03:37:22.361Z,39.90
2018-01-11T03:39:49.876Z,38.08
2018-01-11T03:42:18.160Z,38.70
2018-01-11T03:44:46.444Z,39.83
2018-01-11T03:47:14.753Z,38.70
2018-01-11T03:49:42.255Z,38.75
2018-01-11T03:52:09.809Z,39.70
2018-01-11T03:54:38.410Z,39.30
2018-01-11T03:57:05.914Z,38.42
2018-01-11T03:59:33.427Z,38.20
2018-01-11T04:02:01.730Z,37.67
2018-01-11T04:04:29.229Z,36.53
2018-01-11T04:06:56.735Z,38.58
2018-01-11T04:09:25.036Z,37.45
2018-01-11T04:11:52.547Z,36.03
2018-01-11T04:14:20.076Z,38.70
2018-01-11T04:16:47.644Z,37.05
2018-01-11T04:19:15.231Z,37.75
2018-01-11T04:21:42.782Z,37.25
2018-01-11T04:24:10.592Z,37.60
2018-01-11T04:26:38.108Z,35.47
2018-01-11T04:29:05.631Z,37.55
2018-01-11T04:31:33.147Z,36.90
2018-01-11T04:34:00.663Z,35.47
2018-01-11T04:36:28.191Z,36.03
2018-01-11T04:38:55.692Z,36.40
2018-01-11T04:41:23.218Z,36.63
2018-01-11T04:43:50.737Z,38.83
2018-01-11T04:46:19.012Z,37.67
2018-01-11T04:48:47.330Z,38.47
2018-01-11T04:51:14.908Z,39.88
2018-01-11T04:53:42.416Z,39.90
2018-01-11T04:56:12.880Z,38.08
2018-01-11T04:58:40.420Z,39.05
2018-01-11T05:01:07.993Z,40.40
2018-01-11T05:03:35.521Z,41.53
2018-01-11T05:06:03.782Z,39.30
2018-01-11T05:08:31.293Z,40.65
2018-01-11T05:10:58.987Z,40.45
2018-01-11T05:13:26.538Z,45.50
2018-01-11T05:15:54.051Z,45.10
2018-01-11T05:18:22.339Z,46.30
2018-01-11T05:20:49.851Z,46.33
2018-01-11T05:23:17.347Z,43.65
2018-01-11T05:25:44.878Z,46.63
2018-01-11T05:28:12.409Z,47.92
2018-01-11T05:30:39.950Z,46.00
2018-01-11T05:33:07.473Z,47.13
2018-01-11T05:35:35.731Z,47.25
2018-01-11T05:38:03.235Z,48.07
2018-01-11T05:40:30.734Z,47.62
2018-01-11T05:42:58.247Z,44.70
2018-01-11T05:45:25.768Z,45.67
2018-01-11T05:47:53.264Z,44.97
2018-01-11T05:50:20.809Z,44.67
2018-01-11T05:52:48.316Z,47.22
2018-01-11T05:55:15.823Z,46.58
2018-01-11T05:57:44.112Z,47.40
2018-01-11T06:00:12.390Z,46.20
2018-01-11T06:02:40.660Z,46.50
2018-01-11T06:05:08.940Z,45.08
2018-01-11T06:07:37.203Z,46.00
2018-01-11T06:10:05.517Z,45.30
2018-01-11T06:12:33.022Z,46.05
2018-01-11T06:15:00.543Z,44.60
2018-01-11T06:17:28.095Z,45.67
2018-01-11T06:19:55.612Z,44.45
2018-01-11T06:22:23.136Z,45.88
2018-01-11T06:24:50.635Z,42.92
2018-01-11T06:27:18.903Z,45.67
2018-01-11T06:29:46.428Z,51.92
2018-01-11T06:32:14.004Z,45.83
2018-01-11T06:34:41.517Z,43.78
2018-01-11T06:37:09.019Z,44.95
2018-01-11T06:39:36.544Z,43.47
2018-01-11T06:42:04.162Z,44.45
2018-01-11T06:44:31.673Z,43.78
2018-01-11T06:46:59.183Z,42.80
2018-01-11T06:49:26.699Z,43.17
2018-01-11T06:51:54.226Z,45.30
2018-01-11T06:54:21.774Z,45.87
2018-01-11T06:56:50.087Z,46.58
2018-01-11T06:59:17.619Z,45.15
2018-01-11T07:01:45.170Z,46.47
2018-01-11T07:04:13.500Z,45.45
2018-01-11T07:06:41.009Z,46.63
2018-01-11T07:09:08.515Z,46.42
2018-01-11T07:11:36.033Z,43.03
2018-01-11T07:14:04.296Z,44.78
2018-01-11T07:16:32.642Z,43.72
2018-01-11T07:19:00.155Z,44.20
2018-01-11T07:21:27.766Z,44.60
2018-01-11T07:23:55.259Z,46.40
2018-01-11T07:26:23.538Z,44.10
2018-01-11T07:28:51.066Z,46.80
2018-01-11T07:31:18.593Z,44.13
2018-01-11T07:33:46.118Z,43.28
2018-01-11T07:36:13.669Z,44.17
2018-01-11T07:38:41.946Z,42.95
2018-01-11T07:41:10.224Z,43.22
2018-01-11T07:43:38.529Z,44.78
2018-01-11T07:46:06.064Z,44.47
2018-01-11T07:48:33.578Z,43.72
2018-01-11T07:51:01.118Z,45.65
2018-01-11T07:53:28.692Z,46.22
2018-01-11T07:55:56.231Z,44.03
2018-01-11T07:58:23.760Z,46.40
2018-01-11T08:00:51.264Z,40.75
2018-01-11T08:03:18.757Z,38.60
2018-01-11T08:05:46.259Z,39.47
2018-01-11T08:08:14.751Z,39.83
2018-01-11T08:10:42.315Z,38.05
2018-01-11T08:13:09.867Z,37.08
2018-01-11T08:15:37.362Z,43.67
2018-01-11T08:18:04.862Z,38.38
2018-01-11T08:20:32.378Z,40.10
2018-01-11T08:22:59.911Z,39.20
2018-01-11T08:25:27.418Z,43.83
2018-01-11T08:27:54.937Z,41.17
2018-01-11T08:30:22.489Z,39.42
2018-01-11T08:32:50.102Z,38.20
2018-01-11T08:35:17.772Z,41.83
2018-01-11T08:37:46.089Z,40.03
2018-01-11T08:40:13.635Z,41.45
2018-01-11T08:42:41.164Z,44.05
2018-01-11T08:45:08.671Z,78.93
2018-01-11T08:47:36.231Z,78.12
2018-01-11T08:50:03.728Z,44.65
2018-01-11T08:52:32.000Z,45.10
2018-01-11T08:54:59.493Z,47.92
2018-01-11T08:57:27.763Z,43.85
2018-01-11T08:59:55.274Z,41.33
2018-01-11T09:02:22.806Z,47.62
2018-01-11T09:04:50.347Z,46.67
2018-01-11T09:07:18.622Z,49.17
2018-01-11T09:09:46.144Z,46.30
2018-01-11T09:12:13.675Z,46.17
2018-01-11T09:14:41.200Z,45.50
2018-01-11T09:17:09.524Z,49.78
2018-01-11T09:19:37.152Z,44.03
2018-01-11T09:22:05.430Z,44.60
2018-01-11T09:24:33.713Z,43.35
2018-01-11T09:27:01.286Z,46.10
2018-01-11T09:29:28.836Z,45.83
2018-01-11T09:31:57.113Z,43.35
2018-01-11T09:34:24.674Z,45.05
2018-01-11T09:36:52.191Z,47.72
2018-01-11T09:39:19.759Z,45.97
2018-01-11T09:41:47.467Z,43.92
2018-01-11T09:44:15.002Z,44.65
2018-01-11T09:46:43.274Z,42.05
2018-01-11T09:49:11.554Z,41.55
2018-01-11T09:51:39.820Z,38.28
2018-01-11T09:54:07.358Z,39.45
2018-01-11T09:56:34.939Z,41.33
2018-01-11T09:59:03.238Z,42.47
2018-01-11T10:01:31.531Z,39.83
2018-01-11T10:03:59.055Z,39.97
2018-01-11T10:06:27.425Z,42.38
2018-01-11T10:08:54.938Z,37.13
2018-01-11T10:11:22.451Z,38.20
2018-01-11T10:13:49.954Z,38.10
2018-01-11T10:16:17.469Z,42.10
2018-01-11T10:18:45.004Z,43.35
2018-01-11T10:21:12.515Z,39.70
2018-01-11T10:23:40.019Z,38.28
2018-01-11T10:26:07.531Z,39.65
2018-01-11T10:28:35.109Z,38.90
2018-01-11T10:31:02.619Z,34.90
2018-01-11T10:33:30.121Z,37.85
2018-01-11T10:35:57.643Z,38.10
2018-01-11T10:38:25.140Z,37.15
2018-01-11T10:40:52.655Z,35.95
2018-01-11T10:43:20.944Z,35.40
2018-01-11T10:45:49.206Z,30.70
2018-01-11T10:48:16.724Z,36.97
2018-01-11T10:50:44.215Z,63.70
2018-01-11T10:53:11.716Z,90.38
2018-01-11T10:55:39.229Z,48.40
2018-01-11T10:58:06.806Z,39.45
2018-01-11T11:00:40.150Z,39.42
2018-01-11T11:03:07.650Z,36.75
2018-01-11T11:05:35.148Z,38.13
2018-01-11T11:08:02.715Z,37.15
2018-01-11T11:10:30.192Z,39.50
2018-01-11T11:12:57.704Z,34.80
2018-01-11T11:15:25.233Z,40.55
2018-01-11T11:17:52.730Z,36.38
2018-01-11T11:20:21.259Z,37.38
2018-01-11T11:22:48.809Z,35.60
2018-01-11T11:25:16.358Z,32.38
2018-01-11T11:27:43.885Z,33.92
2018-01-11T11:30:11.410Z,34.58
2018-01-11T11:32:39.254Z,34.83
2018-01-11T11:35:06.783Z,35.78
2018-01-11T11:37:34.305Z,36.17
2018-01-11T11:40:01.807Z,36.33
2018-01-11T11:42:29.315Z,33.83
2018-01-11T11:44:56.822Z,37.50
2018-01-11T11:47:25.108Z,33.65
2018-01-11T11:49:52.638Z,30.55
2018-01-11T11:52:20.166Z,29.80
2018-01-11T11:54:47.674Z,31.23
2018-01-11T11:57:15.996Z,32.05
2018-01-11T11:59:43.834Z,30.02
2018-01-11T12:02:11.372Z,30.23
2018-01-11T12:04:38.915Z,29.95
2018-01-11T12:07:06.422Z,32.22
2018-01-11T12:09:33.937Z,29.02
2018-01-11T12:12:01.436Z,29.37
2018-01-11T12:14:28.970Z,28.48
2018-01-11T12:16:57.243Z,30.40
2018-01-11T12:19:25.506Z,29.25
2018-01-11T12:21:53.024Z,28.77
2018-01-11T12:24:20.605Z,30.45
2018-01-11T12:26:48.139Z,27.52
2018-01-11T12:29:15.693Z,29.42
2018-01-11T12:31:43.228Z,28.48
2018-01-11T12:34:11.601Z,30.58
2018-01-11T12:36:39.121Z,30.50
2018-01-11T12:39:06.607Z,28.27
2018-01-11T12:41:34.109Z,28.50
2018-01-11T12:44:01.684Z,29.95
2018-01-11T12:46:29.176Z,28.62
2018-01-11T12:48:56.732Z,29.85
2018-01-11T12:51:24.264Z,32.03
2018-01-11T12:53:51.779Z,27.90
2018-01-11T12:56:20.064Z,30.20
2018-01-11T12:58:48.341Z,35.08
2018-01-11T13:01:16.619Z,29.58
2018-01-11T13:03:44.896Z,31.40
2018-01-11T13:06:12.400Z,32.90
2018-01-11T13:08:39.929Z,29.92
2018-01-11T13:11:07.455Z,29.85
2018-01-11T13:13:35.722Z,32.00
2018-01-11T13:16:03.235Z,32.88
2018-01-11T13:18:30.754Z,30.83
2018-01-11T13:20:58.267Z,31.35
2018-01-11T13:23:25.772Z,28.48
2018-01-11T13:25:54.061Z,30.40
2018-01-11T13:28:22.438Z,30.75
2018-01-11T13:30:49.941Z,32.10
2018-01-11T13:33:17.578Z,30.98
2018-01-11T13:35:45.104Z,29.85
2018-01-11T13:38:13.376Z,28.62
2018-01-11T13:40:40.904Z,31.23
2018-01-11T13:43:08.448Z,29.42
2018-01-11T13:45:35.947Z,31.60
2018-01-11T13:48:03.438Z,32.03
2018-01-11T13:50:30.951Z,31.77
2018-01-11T13:52:58.457Z,31.05
2018-01-11T13:55:25.967Z,28.62
2018-01-11T13:57:53.486Z,27.30
2018-01-11T14:00:20.997Z,28.35
2018-01-11T14:02:48.515Z,28.25
2018-01-11T14:05:16.026Z,28.55
2018-01-11T14:07:44.309Z,28.90
2018-01-11T14:10:12.590Z,30.80
2018-01-11T14:12:40.882Z,30.73
2018-01-11T14:15:08.379Z,33.75
2018-01-11T14:17:35.928Z,38.28
2018-01-11T14:20:03.470Z,31.67
2018-01-11T14:22:30.997Z,35.67
2018-01-11T14:24:58.525Z,36.50
2018-01-11T14:27:26.036Z,34.65
2018-01-11T14:29:54.358Z,33.70
2018-01-11T14:32:21.897Z,35.13
2018-01-11T14:34:49.414Z,33.20
2018-01-11T14:37:17.690Z,33.60
2018-01-11T14:39:45.200Z,33.22
2018-01-11T14:42:12.747Z,37.60
2018-01-11T14:44:40.252Z,34.38
2018-01-11T14:47:08.013Z,35.83
2018-01-11T14:49:35.554Z,36.30
2018-01-11T14:52:03.096Z,35.22
2018-01-11T14:54:30.607Z,37.65
2018-01-11T14:56:58.116Z,38.67
2018-01-11T14:59:25.637Z,37.47
2018-01-11T15:01:53.937Z,36.92
2018-01-11T15:04:21.586Z,38.08
2018-01-11T15:06:49.096Z,40.00
2018-01-11T15:09:16.650Z,40.45
2018-01-11T15:11:44.154Z,38.05
2018-01-11T15:14:12.445Z,37.47
2018-01-11T15:16:39.998Z,38.60
2018-01-11T15:19:07.716Z,35.60
2018-01-11T15:21:35.317Z,30.55
2018-01-11T15:24:04.150Z,31.95
2018-01-11T15:26:31.652Z,30.67
2018-01-11T15:28:59.385Z,26.77
2018-01-11T15:31:28.643Z,27.77
2018-01-11T15:33:56.216Z,27.15
2018-01-11T15:36:23.967Z,26.15
2018-01-11T15:38:52.262Z,27.65
2018-01-11T15:41:19.857Z,28.35
2018-01-11T15:43:47.383Z,30.17
2018-01-11T15:46:14.941Z,29.37
2018-01-11T15:48:42.454Z,27.37
2018-01-11T15:51:09.984Z,27.52
2018-01-11T15:53:37.498Z,31.73
2018-01-11T15:56:05.783Z,26.60
2018-01-11T15:58:33.380Z,29.90
2018-01-11T16:01:00.893Z,25.95
2018-01-11T16:03:29.233Z,28.62
2018-01-11T16:05:56.749Z,28.52
2018-01-11T16:08:24.256Z,27.13
2018-01-11T16:10:51.875Z,29.45
2018-01-11T16:13:19.452Z,36.13
2018-01-11T16:15:46.967Z,31.58
2018-01-11T16:18:14.495Z,28.30
2018-01-11T16:20:42.014Z,29.30
2018-01-11T16:23:09.535Z,29.77
2018-01-11T16:25:37.131Z,25.05
2018-01-11T16:28:04.636Z,29.80
2018-01-11T16:30:32.240Z,32.50
2018-01-11T16:32:59.710Z,29.98
2018-01-11T16:35:27.230Z,28.77
2018-01-11T16:37:54.755Z,25.23
2018-01-11T16:40:22.267Z,25.95
2018-01-11T16:42:50.832Z,24.50
2018-01-11T16:45:18.394Z,25.40
2018-01-11T16:47:45.907Z,26.75
2018-01-11T16:50:13.437Z,24.40
2018-01-11T16:52:41.706Z,25.67
2018-01-11T16:55:09.977Z,25.25
2018-01-11T16:57:37.511Z,27.77
2018-01-11T17:00:05.004Z,28.80
2018-01-11T17:02:33.395Z,25.02
2018-01-11T17:05:00.906Z,27.73
2018-01-11T17:07:28.455Z,26.83
2018-01-11T17:09:56.128Z,32.85
2018-01-11T17:12:23.621Z,28.85
2018-01-11T17:14:51.920Z,29.27
2018-01-11T17:17:19.423Z,31.50
2018-01-11T17:19:47.245Z,33.30
2018-01-11T17:22:14.768Z,28.55
2018-01-11T17:24:43.052Z,29.00
2018-01-11T17:27:11.347Z,29.52
2018-01-11T17:29:39.182Z,32.97
2018-01-11T17:32:07.519Z,30.77
2018-01-11T17:34:35.080Z,32.65
2018-01-11T17:37:02.611Z,37.10
2018-01-11T17:39:30.136Z,40.72
2018-01-11T17:41:57.653Z,35.00
2018-01-11T17:44:25.237Z,35.17
2018-01-11T17:46:52.739Z,34.22
2018-01-11T17:49:20.271Z,35.55
2018-01-11T17:51:47.820Z,33.58
2018-01-11T17:54:15.319Z,36.35
2018-01-11T17:56:42.876Z,52.90
2018-01-11T17:59:10.391Z,32.28
2018-01-11T18:01:37.900Z,33.90
2018-01-11T18:04:05.493Z,34.70
2018-01-11T18:06:33.120Z,36.58
2018-01-11T18:09:01.424Z,34.80
2018-01-11T18:11:28.940Z,33.78
2018-01-11T18:13:56.548Z,34.15
2018-01-11T18:16:24.057Z,30.77
2018-01-11T18:18:51.588Z,32.38
2018-01-11T18:21:19.235Z,31.70
2018-01-11T18:23:46.785Z,35.13
2018-01-11T18:26:14.325Z,39.72
2018-01-11T18:28:42.010Z,35.53
2018-01-11T18:31:10.286Z,33.38
2018-01-11T18:33:37.843Z,30.17
2018-01-11T18:36:05.371Z,37.53
2018-01-11T18:38:32.938Z,36.05
2018-01-11T18:41:01.237Z,35.58
2018-01-11T18:43:28.998Z,34.33
2018-01-11T18:45:56.533Z,37.22
2018-01-11T18:48:25.375Z,39.80
2018-01-11T18:50:53.677Z,34.67
2018-01-11T18:53:21.171Z,39.75
2018-01-11T18:55:49.488Z,39.42
2018-01-11T18:58:17.886Z,37.55
2018-01-11T19:00:45.407Z,41.67
2018-01-11T19:03:12.970Z,37.80
2018-01-11T19:05:40.492Z,33.50
2018-01-11T19:08:08.803Z,45.35
2018-01-11T19:10:36.348Z,36.47
2018-01-11T19:13:03.911Z,33.60
2018-01-11T19:15:31.520Z,35.45
2018-01-11T19:17:59.028Z,34.97
2018-01-11T19:20:27.995Z,40.00
2018-01-11T19:22:55.507Z,42.25
2018-01-11T19:25:23.034Z,39.05
2018-01-11T19:27:50.581Z,39.15
2018-01-11T19:30:18.895Z,38.30
2018-01-11T19:32:46.431Z,38.67
2018-01-11T19:35:14.736Z,40.12
2018-01-11T19:37:42.464Z,39.70
2018-01-11T19:40:10.036Z,37.35
2018-01-11T19:42:37.842Z,38.53
2018-01-11T19:45:06.304Z,38.00
2018-01-11T19:47:33.887Z,40.00
2018-01-11T19:50:01.422Z,43.60
2018-01-11T19:52:28.985Z,43.95
2018-01-11T19:54:57.326Z,42.97
2018-01-11T19:57:24.872Z,43.65
2018-01-11T19:59:52.425Z,45.08
2018-01-11T20:02:19.997Z,44.55
2018-01-11T20:04:47.534Z,43.95
2018-01-11T20:07:15.058Z,49.97
2018-01-11T20:09:42.621Z,43.92
2018-01-11T20:12:10.143Z,42.50
2018-01-11T20:14:37.889Z,41.70
2018-01-11T20:17:06.400Z,43.50
2018-01-11T20:19:35.627Z,43.83
2018-01-11T20:22:03.128Z,41.97
2018-01-11T20:24:30.668Z,40.50
2018-01-11T20:26:58.252Z,44.97
2018-01-11T20:29:25.876Z,41.90
2018-01-11T20:31:53.401Z,44.60
2018-01-11T20:34:21.712Z,42.03
2018-01-11T20:36:49.276Z,42.60
2018-01-11T20:39:16.835Z,41.55
2018-01-11T20:41:44.345Z,45.88
2018-01-11T20:44:11.926Z,42.78
2018-01-11T20:46:40.214Z,45.88
2018-01-11T20:49:08.542Z,42.40
2018-01-11T20:51:36.089Z,42.65
2018-01-11T20:54:03.662Z,45.45
2018-01-11T20:56:31.970Z,51.20
2018-01-11T20:58:59.682Z,45.78
2018-01-11T21:01:27.196Z,47.62
2018-01-11T21:03:55.475Z,45.88
2018-01-11T21:06:23.762Z,44.55
2018-01-11T21:08:51.290Z,53.65
2018-01-11T21:11:18.873Z,51.40
2018-01-11T21:13:47.181Z,57.67
2018-01-11T21:16:14.746Z,53.63
2018-01-11T21:18:42.376Z,51.45
2018-01-11T21:21:09.953Z,57.95
2018-01-11T21:23:37.573Z,53.00
2018-01-11T21:26:05.162Z,54.78
2018-01-11T21:28:33.462Z,48.97
2018-01-11T21:31:00.998Z,48.65
2018-01-11T21:33:29.345Z,51.72
2018-01-11T21:35:57.021Z,54.88
2018-01-11T21:38:24.549Z,53.63
2018-01-11T21:40:52.870Z,54.25
2018-01-11T21:43:21.263Z,54.67
2018-01-11T21:45:49.559Z,53.78
2018-01-11T21:48:17.072Z,58.65
2018-01-11T21:50:44.894Z,59.33
2018-01-11T21:53:12.577Z,54.78
2018-01-11T21:55:40.109Z,55.17
2018-01-11T21:58:08.501Z,49.88
2018-01-11T22:00:36.801Z,48.22
2018-01-11T22:03:04.495Z,52.60
2018-01-11T22:05:32.107Z,51.13
2018-01-11T22:07:59.653Z,51.92
2018-01-11T22:10:27.362Z,49.95
2018-01-11T22:12:54.910Z,51.37
2018-01-11T22:15:22.507Z,51.17
2018-01-11T22:17:50.015Z,51.97
2018-01-11T22:20:17.588Z,51.70
2018-01-11T22:22:45.192Z,49.47
2018-01-11T22:25:12.700Z,51.35
2018-01-11T22:27:40.441Z,49.00
2018-01-11T22:30:07.961Z,49.25
2018-01-11T22:32:36.224Z,48.50
2018-01-11T22:35:03.742Z,49.10
2018-01-11T22:37:31.264Z,48.78
2018-01-11T22:39:59.559Z,49.38
2018-01-11T22:42:27.068Z,48.58
2018-01-11T22:44:54.609Z,52.33
2018-01-11T22:47:22.319Z,50.00
2018-01-11T22:49:49.942Z,52.35
2018-01-11T22:52:17.649Z,48.55
2018-01-11T22:54:46.397Z,50.42
2018-01-11T22:57:13.898Z,49.35
2018-01-11T22:59:42.241Z,47.92
2018-01-11T23:02:09.763Z,52.80
2018-01-11T23:04:37.291Z,51.90
2018-01-11T23:07:05.595Z,52.65
2018-01-11T23:09:33.123Z,52.50
2018-01-11T23:12:00.646Z,56.55
2018-01-11T23:14:28.202Z,55.60
2018-01-11T23:16:55.691Z,56.90
2018-01-11T23:19:23.214Z,53.42
2018-01-11T23:21:50.889Z,54.22
2018-01-11T23:24:18.424Z,58.13
2018-01-11T23:26:45.939Z,57.35
2018-01-11T23:29:13.456Z,55.08
2018-01-11T23:31:40.989Z,51.08
2018-01-11T23:34:08.511Z,56.28
2018-01-11T23:36:36.783Z,53.50
2018-01-11T23:39:04.295Z,56.42
2018-01-11T23:41:32.652Z,52.50
2018-01-11T23:44:00.177Z,53.15
2018-01-11T23:46:27.688Z,50.83
2018-01-11T23:48:55.546Z,53.22
2018-01-11T23:51:23.393Z,55.00
2018-01-11T23:53:50.913Z,57.55
2018-01-11T23:56:18.414Z,52.80
2018-01-11T23:58:46.761Z,52.03
